Terminal Aerodrome Forecast
Issued by NWS Quad Cities IA IL

Home | Current Version | Previous Version | Text Only | Print | Product List | Glossary On
Versions: 1 2 3 4 5 6 7 8 9 10 11 12 13 14 15 16 17 18 19 20 21 22 23 24 25 26
254
FTUS43 KDVN 281130
TAFMLI
TAF
KMLI 281130Z 2812/2912 20006KT P6SM BKN016 BKN028
     FM281500 19012G18KT P6SM SCT016 BKN200
     FM282100 19013G18KT P6SM VCTS SCT030CB BKN200
      TEMPO 2821/2823 VRB20G30KT 3SM TSRA BR BKN020CB
     FM290100 20007KT P6SM SCT030 BKN080
     FM290800 23006KT 6SM BR SCT080=

USA.gov is the U.S. government's official web portal to all federal, state and local government web resources and services.